Stanhope, Prince Edward Island

11:36 AM ADT on August 26, 2016 (GMT -0300)
Winter Bay Observatory | | Change Station

Elev 26 ft 46.37 °N, 63.03 °W | Updated 1 minute ago

Overcast
Overcast
72.1 °F
Feels Like 70 °F
N
6.0
Wind Variable Wind from SE
Gusts 15.0 mph

Today
High -- | Low -- °F
--% Chance of Precip.
Yesterday
High -- | Low -- °F
Precip. -- in
Pressure 29.91 in
Visibility 12.0 miles
Clouds Overcast 900 ft
Heat Index 70 °F
Dew Point 68 °F
Humidity 88%
Rainfall 0.12 in
Snow Depth Not available.
6:25 AM 8:01 PM
Waning Crescent, 34% visible
METAR CYYG 261400Z 23010G18KT 12SM OVC009 22/19 A2990 RMK SC8 SLP127 DENSITY ALT 900FT
Pressure 29.91 in
Visibility 12.0 miles
Clouds Overcast 900 ft
Heat Index 70 °F
Dew Point 68 °F
Humidity 88%
Rainfall 0.12 in
Snow Depth Not available.
6:25 AM 8:01 PM
Waning Crescent, 34% visible
METAR CYYG 261400Z 23010G18KT 12SM OVC009 22/19 A2990 RMK SC8 SLP127 DENSITY ALT 900FT

10-Day Weather Forecast

No radar image for this location.
×

Almanac

Astronomy

Aug. 26, 2016 Rise Set
Actual Time
Civil Twilight
Nautical Twilight
Astronomical Twilight
Moon
Length of Visible Light
Length of Day
Tomorrow will be .
, % of the Moon is Illuminated

Today's Extremes

Country Highs Country Lows

Community

WunderPhotos

Upload Photos

1,935,089 photos uploaded!

WunderBlog® & News

Nearby

Air Quality

  Air Quality AQ Index Pollutant
Not available.

Snow Depth

Station Depth Elevation

Earthquake Activity

City Distance Mag. Time & Date
Minimum magnitude displayed is 2.5.

Coastal Water Temperatures

Place Temperature

Stations

Nearby Weather Stations

Station Location Temp. Windchill Dew Point Humidity Wind Precip. Elev Updated Type
                   

Watches & Warnings

There are currently no watches in effect.